Terminal Aerodrome Forecast
Issued by NWS Houston/Galveston, TX

Home | Current Version | Previous Version | Text Only | Print | Product List | Glossary On
Versions: 1 2 3 4 5 6 7 8 9 10 11 12 13 14 15 16 17 18 19 20 21 22 23 24 25 26 27 28 29 30 31 32 33 34 35 36 37 38 39 40 41 42 43 44 45 46 47 48 49 50
000
FTUS44 KHGX 191822 AAA
TAFGLS
TAF AMD
KGLS 191822Z 1918/2018 03017KT 5SM -RA BR SCT007 BKN016 OVC022
      TEMPO 1918/1920 1SM +TSRA OVC007CB
     FM192100 02013KT 4SM BR VCSH BKN007 OVC015
     FM200300 02016KT P6SM VCSH BKN008 OVC020=

USA.gov is the U.S. government's official web portal to all federal, state and local government web resources and services.